createdAt,value
2018-06-01T00:01:52.640Z,17.00
2018-06-01T00:04:22.293Z,16.90
2018-06-01T00:06:51.988Z,16.90
2018-06-01T00:09:21.632Z,16.90
2018-06-01T00:11:50.512Z,16.90
2018-06-01T00:14:19.420Z,16.90
2018-06-01T00:16:49.063Z,16.90
2018-06-01T00:19:17.971Z,16.90
2018-06-01T00:21:46.879Z,17.00
2018-06-01T00:24:15.761Z,16.90
2018-06-01T00:26:44.644Z,16.90
2018-06-01T00:29:13.564Z,16.90
2018-06-01T00:31:42.447Z,16.80
2018-06-01T00:34:11.333Z,16.80
2018-06-01T00:36:43.803Z,16.70
2018-06-01T00:39:13.448Z,16.80
2018-06-01T00:41:42.348Z,16.80
2018-06-01T00:44:11.258Z,16.70
2018-06-01T00:46:40.528Z,16.70
2018-06-01T00:49:10.199Z,16.70
2018-06-01T00:51:39.080Z,16.70
2018-06-01T00:54:08.771Z,16.70
2018-06-01T00:56:37.649Z,16.70
2018-06-01T00:59:06.530Z,16.70
2018-06-01T01:01:36.204Z,16.70
2018-06-01T01:04:05.109Z,16.70
2018-06-01T01:06:34.780Z,16.70
2018-06-01T01:09:03.757Z,16.70
2018-06-01T01:11:32.644Z,16.70
2018-06-01T01:14:02.291Z,16.60
2018-06-01T01:16:31.225Z,16.60
2018-06-01T01:19:00.867Z,16.60
2018-06-01T01:21:29.763Z,16.50
2018-06-01T01:23:58.693Z,16.50
2018-06-01T01:26:27.577Z,16.40
2018-06-01T01:28:56.549Z,16.40
2018-06-01T01:31:25.451Z,16.40
2018-06-01T01:33:54.335Z,16.40
2018-06-01T01:36:23.255Z,16.40
2018-06-01T01:38:52.142Z,16.30
2018-06-01T01:41:21.017Z,16.30
2018-06-01T01:43:49.919Z,16.30
2018-06-01T01:46:18.803Z,16.30
2018-06-01T01:48:47.704Z,16.30
2018-06-01T01:51:17.352Z,16.30
2018-06-01T01:53:46.253Z,16.30
2018-06-01T01:56:15.139Z,16.30
2018-06-01T01:58:44.816Z,16.40
2018-06-01T02:01:13.698Z,16.30
2018-06-01T02:03:42.579Z,16.30
2018-06-01T02:06:11.476Z,16.30
2018-06-01T02:08:41.164Z,16.30
2018-06-01T02:11:10.827Z,16.30
2018-06-01T02:13:39.717Z,16.30
2018-06-01T02:16:08.616Z,16.30
2018-06-01T02:18:37.520Z,16.20
2018-06-01T02:21:06.416Z,16.20
2018-06-01T02:23:35.359Z,16.10
2018-06-01T02:26:04.275Z,16.10
2018-06-01T02:28:33.158Z,16.10
2018-06-01T02:31:02.064Z,16.10
2018-06-01T02:33:31.731Z,16.20
2018-06-01T02:36:00.614Z,16.10
2018-06-01T02:38:30.283Z,16.10
2018-06-01T02:40:59.177Z,16.10
2018-06-01T02:43:28.080Z,16.10
2018-06-01T02:45:56.979Z,16.00
2018-06-01T02:48:25.881Z,15.90
2018-06-01T02:50:54.764Z,15.90
2018-06-01T02:53:23.686Z,16.00
2018-06-01T02:55:52.564Z,16.00
2018-06-01T02:58:21.450Z,15.90
2018-06-01T03:00:50.358Z,15.90
2018-06-01T03:03:19.275Z,15.80
2018-06-01T03:05:48.175Z,15.80
2018-06-01T03:08:17.056Z,15.80
2018-06-01T03:10:45.960Z,15.90
2018-06-01T03:13:14.897Z,15.90
2018-06-01T03:15:43.791Z,15.90
2018-06-01T03:18:12.678Z,15.90
2018-06-01T03:20:41.571Z,15.90
2018-06-01T03:23:10.483Z,15.90
2018-06-01T03:25:39.363Z,15.80
2018-06-01T03:28:08.277Z,15.80
2018-06-01T03:30:37.919Z,15.90
2018-06-01T03:33:06.808Z,15.90
2018-06-01T03:35:35.723Z,15.90
2018-06-01T03:38:05.478Z,16.00
2018-06-01T03:40:34.371Z,16.10
2018-06-01T03:43:04.743Z,16.20
2018-06-01T03:45:34.397Z,16.30
2018-06-01T03:48:03.272Z,16.30
2018-06-01T03:50:32.174Z,16.30
2018-06-01T03:53:01.816Z,16.50
2018-06-01T03:55:30.716Z,16.50
2018-06-01T03:57:59.598Z,16.60
2018-06-01T04:00:28.499Z,16.70
2018-06-01T04:02:59.007Z,16.90
2018-06-01T04:05:27.882Z,16.90
2018-06-01T04:07:57.571Z,17.10
2018-06-01T04:10:27.216Z,17.30
2018-06-01T04:12:56.112Z,17.30
2018-06-01T04:15:25.016Z,17.60
2018-06-01T04:17:54.678Z,18.20
2018-06-01T04:20:23.598Z,18.20
2018-06-01T04:22:53.251Z,18.60
2018-06-01T04:25:22.156Z,18.60
2018-06-01T04:27:51.823Z,19.10
2018-06-01T04:30:20.740Z,19.10
2018-06-01T04:32:49.620Z,19.40
2018-06-01T04:35:18.520Z,19.70
2018-06-01T04:37:47.395Z,19.80
2018-06-01T04:40:16.296Z,20.00
2018-06-01T04:42:45.192Z,20.30
2018-06-01T04:45:14.860Z,20.80
2018-06-01T04:47:43.783Z,20.70
2018-06-01T04:50:12.726Z,21.00
2018-06-01T04:52:42.391Z,21.40
2018-06-01T04:55:11.268Z,21.40
2018-06-01T04:57:40.202Z,21.60
2018-06-01T05:00:09.083Z,21.90
2018-06-01T05:02:37.964Z,22.10
2018-06-01T05:05:06.867Z,22.30
2018-06-01T05:07:35.755Z,22.70
2018-06-01T05:10:04.712Z,22.90
2018-06-01T05:12:33.593Z,23.00
2018-06-01T05:15:02.508Z,23.10
2018-06-01T05:17:32.172Z,23.30
2018-06-01T05:20:01.054Z,23.30
2018-06-01T05:22:29.952Z,23.40
2018-06-01T05:24:59.600Z,23.80
2018-06-01T05:27:28.515Z,23.80
2018-06-01T05:29:58.169Z,23.40
2018-06-01T05:32:27.055Z,23.40
2018-06-01T05:34:55.980Z,23.00
2018-06-01T05:37:24.873Z,22.70
2018-06-01T05:39:54.516Z,23.00
2018-06-01T05:42:23.423Z,23.00
2018-06-01T05:44:52.319Z,23.50
2018-06-01T05:47:21.210Z,24.20
2018-06-01T05:49:50.136Z,24.60
2018-06-01T05:52:19.780Z,25.30
2018-06-01T05:54:48.664Z,25.30
2018-06-01T05:57:17.593Z,25.60
2018-06-01T05:59:46.472Z,25.80
2018-06-01T06:02:15.394Z,26.10
2018-06-01T06:04:44.289Z,26.50
2018-06-01T06:07:13.221Z,26.80
2018-06-01T06:09:42.115Z,27.00
2018-06-01T06:12:10.996Z,27.00
2018-06-01T06:14:39.900Z,27.20
2018-06-01T06:17:09.548Z,27.50
2018-06-01T06:19:38.443Z,27.50
2018-06-01T06:22:07.344Z,27.60
2018-06-01T06:24:37.023Z,27.90
2018-06-01T06:27:05.936Z,27.90
2018-06-01T06:29:34.843Z,28.10
2018-06-01T06:32:03.761Z,28.30
2018-06-01T06:34:33.468Z,28.20
2018-06-01T06:37:02.349Z,28.20
2018-06-01T06:39:31.252Z,28.10
2018-06-01T06:42:00.137Z,28.60
2018-06-01T06:44:29.041Z,29.20
2018-06-01T06:46:57.934Z,29.70
2018-06-01T06:49:27.604Z,30.20
2018-06-01T06:51:56.483Z,30.20
2018-06-01T06:54:25.367Z,29.70
2018-06-01T06:56:55.049Z,28.90
2018-06-01T06:59:23.962Z,28.90
2018-06-01T07:01:52.839Z,28.40
2018-06-01T07:04:21.771Z,28.10
2018-06-01T07:06:50.662Z,27.70
2018-06-01T07:09:20.313Z,27.50
2018-06-01T07:11:49.230Z,27.50
2018-06-01T07:14:18.938Z,26.90
2018-06-01T07:16:47.844Z,26.90
2018-06-01T07:19:16.743Z,26.50
2018-06-01T07:21:45.638Z,26.40
2018-06-01T07:24:14.535Z,26.20
2018-06-01T07:26:44.181Z,26.60
2018-06-01T07:29:13.085Z,26.60
2018-06-01T07:31:41.987Z,27.00
2018-06-01T07:34:10.937Z,27.60
2018-06-01T07:36:39.828Z,28.10
2018-06-01T07:39:08.724Z,28.40
2018-06-01T07:41:37.640Z,28.70
2018-06-01T07:44:06.532Z,29.10
2018-06-01T07:46:35.485Z,29.20
2018-06-01T07:49:04.409Z,29.30
2018-06-01T07:51:33.316Z,29.30
2018-06-01T07:54:02.244Z,29.30
2018-06-01T07:56:31.892Z,29.60
2018-06-01T07:59:00.781Z,29.60
2018-06-01T08:01:29.699Z,29.50
2018-06-01T08:03:59.367Z,29.40
2018-06-01T08:06:28.275Z,29.40
2018-06-01T08:08:57.156Z,29.50
2018-06-01T08:11:26.063Z,29.60
2018-06-01T08:13:54.965Z,29.70
2018-06-01T08:16:23.851Z,29.70
2018-06-01T08:18:53.598Z,29.60
2018-06-01T08:21:22.500Z,29.50
2018-06-01T08:23:51.448Z,29.30
2018-06-01T08:26:20.367Z,29.30
2018-06-01T08:28:49.269Z,29.30
2018-06-01T08:31:18.152Z,29.40
2018-06-01T08:33:47.075Z,29.50
2018-06-01T08:36:15.956Z,29.40
2018-06-01T08:38:44.845Z,29.30
2018-06-01T08:41:14.526Z,29.00
2018-06-01T08:43:43.424Z,29.00
2018-06-01T08:46:13.100Z,29.00
2018-06-01T08:48:41.979Z,29.00
2018-06-01T08:51:10.891Z,29.20
2018-06-01T08:53:39.789Z,29.20
2018-06-01T08:56:08.715Z,29.30
2018-06-01T08:58:38.367Z,29.50
2018-06-01T09:01:07.244Z,29.40
2018-06-01T09:03:36.185Z,29.60
2018-06-01T09:06:05.062Z,29.70
2018-06-01T09:08:33.944Z,29.60
2018-06-01T09:11:02.853Z,29.50
2018-06-01T09:13:31.768Z,29.70
2018-06-01T09:16:01.424Z,29.50
2018-06-01T09:18:30.306Z,29.50
2018-06-01T09:20:59.208Z,29.60
2018-06-01T09:23:28.875Z,29.50
2018-06-01T09:25:57.761Z,29.50
2018-06-01T09:28:26.725Z,29.30
2018-06-01T09:30:55.611Z,29.30
2018-06-01T09:33:24.488Z,29.30
2018-06-01T09:35:53.363Z,29.30
2018-06-01T09:38:22.267Z,29.20
2018-06-01T09:40:51.153Z,28.90
2018-06-01T09:43:20.064Z,28.70
2018-06-01T09:45:48.958Z,28.50
2018-06-01T09:48:17.847Z,28.40
2018-06-01T09:50:47.484Z,28.40
2018-06-01T09:53:16.388Z,28.40
2018-06-01T09:55:45.264Z,28.60
2018-06-01T09:58:14.188Z,28.70
2018-06-01T10:00:48.443Z,28.70
2018-06-01T10:03:17.377Z,28.50
2018-06-01T10:05:46.263Z,28.10
2018-06-01T10:08:15.146Z,27.90
2018-06-01T10:10:44.041Z,27.90
2018-06-01T10:13:13.183Z,27.80
2018-06-01T10:15:42.097Z,27.80
2018-06-01T10:18:11.015Z,27.70
2018-06-01T10:20:39.907Z,27.60
2018-06-01T10:23:08.791Z,27.50
2018-06-01T10:25:37.714Z,27.50
2018-06-01T10:28:06.592Z,27.30
2018-06-01T10:30:36.232Z,27.10
2018-06-01T10:33:05.191Z,27.10
2018-06-01T10:35:34.075Z,27.30
2018-06-01T10:38:02.947Z,27.50
2018-06-01T10:40:31.843Z,27.70
2018-06-01T10:43:00.749Z,27.90
2018-06-01T10:45:29.627Z,28.00
2018-06-01T10:47:58.540Z,27.90
2018-06-01T10:50:27.435Z,27.70
2018-06-01T10:52:56.311Z,27.60
2018-06-01T10:55:25.228Z,27.50
2018-06-01T10:57:54.148Z,27.40
2018-06-01T11:00:23.067Z,27.30
2018-06-01T11:02:51.944Z,27.10
2018-06-01T11:05:20.847Z,26.80
2018-06-01T11:07:50.503Z,26.40
2018-06-01T11:10:19.377Z,26.40
2018-06-01T11:12:48.316Z,26.30
2018-06-01T11:15:17.204Z,26.10
2018-06-01T11:17:46.077Z,26.10
2018-06-01T11:20:14.964Z,26.00
2018-06-01T11:22:43.864Z,25.90
2018-06-01T11:25:12.755Z,25.90
2018-06-01T11:27:42.420Z,25.80
2018-06-01T11:30:11.315Z,25.70
2018-06-01T11:32:40.200Z,25.60
2018-06-01T11:35:09.856Z,25.10
2018-06-01T11:37:38.750Z,25.00
2018-06-01T11:40:07.655Z,25.00
2018-06-01T11:42:36.527Z,25.00
2018-06-01T11:45:06.191Z,25.20
2018-06-01T11:47:35.083Z,25.20
2018-06-01T11:50:04.750Z,25.30
2018-06-01T11:52:33.640Z,25.20
2018-06-01T11:55:03.375Z,24.60
2018-06-01T11:57:32.257Z,24.60
2018-06-01T12:00:01.128Z,23.90
2018-06-01T12:02:30.031Z,23.60
2018-06-01T12:04:58.908Z,23.60
2018-06-01T12:07:27.820Z,23.80
2018-06-01T12:09:57.467Z,24.10
2018-06-01T12:12:26.349Z,24.10
2018-06-01T12:14:55.251Z,24.20
2018-06-01T12:17:24.135Z,24.20
2018-06-01T12:19:53.780Z,24.00
2018-06-01T12:22:22.676Z,24.00
2018-06-01T12:24:51.557Z,23.90
2018-06-01T12:27:20.471Z,23.80
2018-06-01T12:29:49.372Z,23.70
2018-06-01T12:32:18.277Z,23.50
2018-06-01T12:34:47.172Z,23.40
2018-06-01T12:37:16.832Z,23.00
2018-06-01T12:39:45.735Z,23.00
2018-06-01T12:42:14.622Z,22.80
2018-06-01T12:44:44.282Z,22.40
2018-06-01T12:47:13.203Z,22.40
2018-06-01T12:49:42.083Z,22.20
2018-06-01T12:52:10.959Z,22.10
2018-06-01T12:54:39.867Z,21.90
2018-06-01T12:57:08.757Z,21.30
2018-06-01T12:59:37.673Z,20.80
2018-06-01T13:02:06.568Z,20.40
2018-06-01T13:04:35.468Z,20.20
2018-06-01T13:07:04.362Z,20.00
2018-06-01T13:09:33.283Z,19.70
2018-06-01T13:12:02.159Z,19.50
2018-06-01T13:14:31.040Z,19.30
2018-06-01T13:16:59.976Z,19.20
2018-06-01T13:19:29.635Z,19.10
2018-06-01T13:21:58.562Z,19.10
2018-06-01T13:24:28.290Z,19.00
2018-06-01T13:26:57.219Z,18.90
2018-06-01T13:29:26.100Z,18.90
2018-06-01T13:31:56.445Z,18.90
2018-06-01T13:34:25.346Z,18.90
2018-06-01T13:36:54.287Z,19.00
2018-06-01T13:39:23.189Z,18.90
2018-06-01T13:41:52.085Z,19.00
2018-06-01T13:44:21.777Z,18.90
2018-06-01T13:46:50.687Z,18.90
2018-06-01T13:49:20.332Z,18.70
2018-06-01T13:51:50.000Z,18.60
2018-06-01T13:54:18.880Z,18.60
2018-06-01T13:56:47.788Z,18.60
2018-06-01T13:59:16.703Z,18.60
2018-06-01T14:01:45.610Z,18.60
2018-06-01T14:04:14.525Z,18.50
2018-06-01T14:06:43.455Z,18.50
2018-06-01T14:09:12.377Z,18.50
2018-06-01T14:11:42.051Z,18.50
2018-06-01T14:14:10.971Z,18.50
2018-06-01T14:16:41.019Z,18.50
2018-06-01T14:19:09.951Z,18.50
2018-06-01T14:21:38.812Z,18.50
2018-06-01T14:24:08.551Z,18.60
2018-06-01T14:26:37.445Z,18.50
2018-06-01T14:29:06.403Z,18.60
2018-06-01T14:31:35.315Z,18.50
2018-06-01T14:34:04.224Z,18.50
2018-06-01T14:36:33.127Z,18.50
2018-06-01T14:39:02.015Z,18.60
2018-06-01T14:41:30.936Z,18.60
2018-06-01T14:44:00.598Z,18.50
2018-06-01T14:46:29.523Z,18.50
2018-06-01T14:48:58.408Z,18.50
2018-06-01T14:51:27.993Z,18.40
2018-06-01T14:53:56.923Z,18.50
2018-06-01T14:56:25.823Z,18.50
2018-06-01T14:58:55.861Z,18.70
2018-06-01T15:01:24.762Z,18.60
2018-06-01T15:03:54.409Z,18.80
2018-06-01T15:06:23.282Z,18.80
2018-06-01T15:08:52.186Z,18.90
2018-06-01T15:11:21.072Z,19.10
2018-06-01T15:13:50.003Z,19.20
2018-06-01T15:16:18.888Z,19.30
2018-06-01T15:18:47.772Z,19.30
2018-06-01T15:21:16.686Z,19.40
2018-06-01T15:23:45.588Z,19.50
2018-06-01T15:26:15.259Z,19.60
2018-06-01T15:28:44.144Z,19.60
2018-06-01T15:31:13.081Z,19.60
2018-06-01T15:33:41.975Z,19.60
2018-06-01T15:36:10.884Z,19.60
2018-06-01T15:38:39.800Z,19.70
2018-06-01T15:41:08.713Z,19.70
2018-06-01T15:43:37.643Z,19.70
2018-06-01T15:46:06.527Z,19.80
2018-06-01T15:48:35.417Z,19.90
2018-06-01T15:51:04.310Z,19.90
2018-06-01T15:53:33.190Z,20.00
2018-06-01T15:56:02.099Z,20.10
2018-06-01T15:58:31.007Z,20.10
2018-06-01T16:00:59.930Z,20.10
2018-06-01T16:03:30.281Z,20.10
2018-06-01T16:05:59.185Z,20.10
2018-06-01T16:08:28.066Z,20.20
2018-06-01T16:10:56.963Z,20.30
2018-06-01T16:13:26.657Z,20.40
2018-06-01T16:15:56.348Z,20.40
2018-06-01T16:18:25.993Z,20.40
2018-06-01T16:20:54.872Z,20.30
2018-06-01T16:23:23.815Z,20.40
2018-06-01T16:25:52.696Z,20.30
2018-06-01T16:28:21.581Z,20.30
2018-06-01T16:30:50.484Z,20.30
2018-06-01T16:33:19.388Z,20.10
2018-06-01T16:35:49.050Z,20.10
2018-06-01T16:38:18.735Z,20.10
2018-06-01T16:40:47.620Z,20.00
2018-06-01T16:43:16.499Z,20.10
2018-06-01T16:45:45.403Z,20.00
2018-06-01T16:48:15.045Z,19.90
2018-06-01T16:50:43.966Z,19.90
2018-06-01T16:53:12.868Z,19.90
2018-06-01T16:55:41.750Z,19.90
2018-06-01T16:58:10.652Z,19.80
2018-06-01T17:00:39.555Z,19.80
2018-06-01T17:03:08.435Z,19.80
2018-06-01T17:05:37.343Z,19.70
2018-06-01T17:08:06.240Z,19.80
2018-06-01T17:10:35.149Z,19.80
2018-06-01T17:13:04.031Z,19.80
2018-06-01T17:15:32.949Z,19.90
2018-06-01T17:18:01.832Z,19.90
2018-06-01T17:20:30.757Z,19.80
2018-06-01T17:22:59.635Z,19.80
2018-06-01T17:25:28.510Z,19.80
2018-06-01T17:27:58.195Z,19.80
2018-06-01T17:30:27.098Z,19.80
2018-06-01T17:32:56.761Z,19.70
2018-06-01T17:35:25.637Z,19.70
2018-06-01T17:37:54.626Z,19.70
2018-06-01T17:40:23.472Z,19.70
2018-06-01T17:42:52.375Z,19.60
2018-06-01T17:45:22.067Z,19.40
2018-06-01T17:47:50.955Z,19.40
2018-06-01T17:50:20.620Z,19.30
2018-06-01T17:52:49.547Z,19.30
2018-06-01T17:55:18.427Z,19.30
2018-06-01T17:57:47.323Z,19.30
2018-06-01T18:00:16.195Z,19.30
2018-06-01T18:02:45.094Z,19.30
2018-06-01T18:05:13.985Z,19.30
2018-06-01T18:07:42.880Z,19.30
2018-06-01T18:10:12.523Z,19.20
2018-06-01T18:12:41.435Z,19.20
2018-06-01T18:15:10.315Z,19.20
2018-06-01T18:17:39.967Z,19.10
2018-06-01T18:20:08.871Z,19.10
2018-06-01T18:22:37.823Z,19.10
2018-06-01T18:25:06.721Z,19.00
2018-06-01T18:27:35.614Z,18.90
2018-06-01T18:30:05.289Z,18.80
2018-06-01T18:32:34.196Z,18.80
2018-06-01T18:35:03.100Z,18.80
2018-06-01T18:37:31.978Z,18.70
2018-06-01T18:40:00.876Z,18.70
2018-06-01T18:42:29.776Z,18.60
2018-06-01T18:44:59.472Z,18.60
2018-06-01T18:47:29.135Z,18.50
2018-06-01T18:49:58.035Z,18.50
2018-06-01T18:52:27.709Z,18.40
2018-06-01T18:54:56.602Z,18.40
2018-06-01T18:57:25.479Z,18.40
2018-06-01T18:59:55.144Z,18.30
2018-06-01T19:02:24.038Z,18.30
2018-06-01T19:04:52.936Z,18.20
2018-06-01T19:07:22.602Z,18.10
2018-06-01T19:09:51.520Z,18.10
2018-06-01T19:12:20.407Z,18.10
2018-06-01T19:14:49.312Z,18.00
2018-06-01T19:17:18.222Z,17.90
2018-06-01T19:19:47.880Z,17.70
2018-06-01T19:22:16.783Z,17.70
2018-06-01T19:24:46.429Z,17.70
2018-06-01T19:27:15.343Z,17.70
2018-06-01T19:29:44.247Z,17.70
2018-06-01T19:32:13.127Z,17.60
2018-06-01T19:34:42.917Z,17.60
2018-06-01T19:37:11.799Z,17.50
2018-06-01T19:39:40.691Z,17.50
2018-06-01T19:42:09.571Z,17.50
2018-06-01T19:44:38.479Z,17.40
2018-06-01T19:47:07.364Z,17.40
2018-06-01T19:49:36.248Z,17.30
2018-06-01T19:52:05.920Z,17.30
2018-06-01T19:54:34.836Z,17.30
2018-06-01T19:57:03.739Z,17.20
2018-06-01T19:59:32.685Z,17.20
2018-06-01T20:02:02.319Z,17.20
2018-06-01T20:04:31.205Z,17.10
2018-06-01T20:07:00.111Z,17.10
2018-06-01T20:09:29.797Z,17.00
2018-06-01T20:11:59.458Z,17.00
2018-06-01T20:14:28.338Z,17.00
2018-06-01T20:16:57.256Z,17.00
2018-06-01T20:19:26.899Z,16.90
2018-06-01T20:21:55.780Z,16.90
2018-06-01T20:24:24.698Z,16.90
2018-06-01T20:26:54.347Z,16.80
2018-06-01T20:29:23.248Z,16.80
2018-06-01T20:31:52.143Z,16.70
2018-06-01T20:34:21.803Z,16.60
2018-06-01T20:36:50.683Z,16.60
2018-06-01T20:39:19.583Z,16.50
2018-06-01T20:41:49.227Z,16.40
2018-06-01T20:44:18.101Z,16.40
2018-06-01T20:46:46.994Z,16.40
2018-06-01T20:49:15.919Z,16.30
2018-06-01T20:51:44.791Z,16.20
2018-06-01T20:54:13.715Z,16.20
2018-06-01T20:56:42.642Z,16.20
2018-06-01T20:59:12.351Z,16.10
2018-06-01T21:01:41.295Z,16.00
2018-06-01T21:04:10.936Z,15.90
2018-06-01T21:06:39.816Z,15.90
2018-06-01T21:09:08.732Z,15.90
2018-06-01T21:11:38.393Z,15.90
2018-06-01T21:14:07.271Z,15.90
2018-06-01T21:16:36.183Z,15.80
2018-06-01T21:19:05.827Z,15.80
2018-06-01T21:21:34.698Z,15.70
2018-06-01T21:24:03.999Z,15.70
2018-06-01T21:26:32.899Z,15.70
2018-06-01T21:29:02.562Z,15.60
2018-06-01T21:31:31.430Z,15.60
2018-06-01T21:34:01.068Z,15.50
2018-06-01T21:36:29.966Z,15.50
2018-06-01T21:38:58.885Z,15.50
2018-06-01T21:41:28.519Z,15.40
2018-06-01T21:43:57.399Z,15.40
2018-06-01T21:46:26.304Z,15.40
2018-06-01T21:48:55.215Z,15.40
2018-06-01T21:51:24.869Z,15.30
2018-06-01T21:53:53.747Z,15.30
2018-06-01T21:56:22.646Z,15.30
2018-06-01T21:58:51.554Z,15.30
2018-06-01T22:01:20.463Z,15.20
2018-06-01T22:03:49.344Z,15.30
2018-06-01T22:06:18.247Z,15.20
2018-06-01T22:08:47.172Z,15.10
2018-06-01T22:11:16.052Z,15.10
2018-06-01T22:13:44.931Z,15.00
2018-06-01T22:16:13.891Z,15.00
2018-06-01T22:18:43.561Z,14.90
2018-06-01T22:21:13.204Z,14.80
2018-06-01T22:23:42.088Z,14.80
2018-06-01T22:26:10.988Z,14.80
2018-06-01T22:28:39.896Z,14.80
2018-06-01T22:31:08.775Z,14.80
2018-06-01T22:33:37.695Z,14.80
2018-06-01T22:36:06.572Z,14.80
2018-06-01T22:38:35.456Z,14.80
2018-06-01T22:41:04.355Z,14.80
2018-06-01T22:43:33.993Z,14.90
2018-06-01T22:46:02.907Z,14.80
2018-06-01T22:48:31.788Z,14.90
2018-06-01T22:51:01.427Z,14.90
2018-06-01T22:53:30.360Z,14.90
2018-06-01T22:56:00.003Z,14.90
2018-06-01T22:58:28.876Z,14.90
2018-06-01T23:00:57.799Z,14.90
2018-06-01T23:03:26.671Z,14.80
2018-06-01T23:05:55.543Z,14.80
2018-06-01T23:08:24.443Z,14.80
2018-06-01T23:10:53.340Z,14.80
2018-06-01T23:13:22.211Z,14.70
2018-06-01T23:15:51.103Z,14.70
2018-06-01T23:18:20.005Z,14.70
2018-06-01T23:20:48.908Z,14.60
2018-06-01T23:23:18.547Z,14.60
2018-06-01T23:25:47.443Z,14.60
2018-06-01T23:28:16.358Z,14.60
2018-06-01T23:30:46.000Z,14.70
2018-06-01T23:33:14.871Z,14.70
2018-06-01T23:35:43.770Z,14.70
2018-06-01T23:38:12.649Z,14.60
2018-06-01T23:40:41.528Z,14.60
2018-06-01T23:43:10.423Z,14.60
2018-06-01T23:45:40.100Z,14.50
2018-06-01T23:48:08.981Z,14.50
2018-06-01T23:50:38.623Z,14.50
2018-06-01T23:53:07.526Z,14.50
2018-06-01T23:55:36.405Z,14.50
2018-06-01T23:58:05.272Z,14.50
